sensor_id;sensor_type;location;lat;lon;timestamp;temperature;humidity
36292;DHT22;22327;51.208;6.418;2023-05-17T00:02:55;12.00;95.10
36292;DHT22;22327;51.208;6.418;2023-05-17T00:05:55;12.00;95.10
36292;DHT22;22327;51.208;6.418;2023-05-17T00:08:56;12.00;95.20
36292;DHT22;22327;51.208;6.418;2023-05-17T00:11:56;12.00;95.40
36292;DHT22;22327;51.208;6.418;2023-05-17T00:14:57;12.00;95.60
36292;DHT22;22327;51.208;6.418;2023-05-17T00:17:58;11.90;95.60
36292;DHT22;22327;51.208;6.418;2023-05-17T00:20:58;11.90;95.70
36292;DHT22;22327;51.208;6.418;2023-05-17T00:23:59;11.90;95.90
36292;DHT22;22327;51.208;6.418;2023-05-17T00:26:59;11.80;95.80
36292;DHT22;22327;51.208;6.418;2023-05-17T00:30:00;11.80;96.00
36292;DHT22;22327;51.208;6.418;2023-05-17T00:33:00;11.70;96.10
36292;DHT22;22327;51.208;6.418;2023-05-17T00:36:01;11.70;96.30
36292;DHT22;22327;51.208;6.418;2023-05-17T00:39:01;11.70;96.70
36292;DHT22;22327;51.208;6.418;2023-05-17T00:42:02;11.60;96.70
36292;DHT22;22327;51.208;6.418;2023-05-17T00:45:03;11.50;97.00
36292;DHT22;22327;51.208;6.418;2023-05-17T00:48:04;11.50;97.10
36292;DHT22;22327;51.208;6.418;2023-05-17T00:51:05;11.50;97.40
36292;DHT22;22327;51.208;6.418;2023-05-17T00:54:06;11.50;97.60
36292;DHT22;22327;51.208;6.418;2023-05-17T00:57:06;11.40;97.80
36292;DHT22;22327;51.208;6.418;2023-05-17T01:00:08;11.40;98.20
36292;DHT22;22327;51.208;6.418;2023-05-17T01:03:09;11.30;98.40
36292;DHT22;22327;51.208;6.418;2023-05-17T01:06:09;11.30;98.50
36292;DHT22;22327;51.208;6.418;2023-05-17T01:09:10;11.40;98.60
36292;DHT22;22327;51.208;6.418;2023-05-17T01:15:31;11.40;98.20
36292;DHT22;22327;51.208;6.418;2023-05-17T01:18:36;11.50;98.20
36292;DHT22;22327;51.208;6.418;2023-05-17T01:21:58;11.40;98.20
36292;DHT22;22327;51.208;6.418;2023-05-17T01:28:21;11.30;98.70
36292;DHT22;22327;51.208;6.418;2023-05-17T01:31:22;11.20;98.90
36292;DHT22;22327;51.208;6.418;2023-05-17T01:34:28;11.20;99.00
36292;DHT22;22327;51.208;6.418;2023-05-17T01:37:29;11.20;99.10
36292;DHT22;22327;51.208;6.418;2023-05-17T01:40:32;11.20;99.00
36292;DHT22;22327;51.208;6.418;2023-05-17T01:43:50;11.20;99.00
36292;DHT22;22327;51.208;6.418;2023-05-17T01:50:20;11.20;99.10
36292;DHT22;22327;51.208;6.418;2023-05-17T01:53:37;11.20;99.40
36292;DHT22;22327;51.208;6.418;2023-05-17T01:56:42;11.20;99.30
36292;DHT22;22327;51.208;6.418;2023-05-17T01:59:44;11.20;99.30
36292;DHT22;22327;51.208;6.418;2023-05-17T02:02:47;11.20;99.20
36292;DHT22;22327;51.208;6.418;2023-05-17T02:05:47;11.10;99.20
36292;DHT22;22327;51.208;6.418;2023-05-17T02:08:48;11.10;99.50
36292;DHT22;22327;51.208;6.418;2023-05-17T02:11:48;11.10;99.90
36292;DHT22;22327;51.208;6.418;2023-05-17T02:14:49;11.10;99.70
36292;DHT22;22327;51.208;6.418;2023-05-17T02:17:49;11.10;99.40
36292;DHT22;22327;51.208;6.418;2023-05-17T02:20:50;11.00;99.40
36292;DHT22;22327;51.208;6.418;2023-05-17T02:23:50;10.90;99.50
36292;DHT22;22327;51.208;6.418;2023-05-17T02:26:53;10.90;99.50
36292;DHT22;22327;51.208;6.418;2023-05-17T02:29:55;10.80;99.40
36292;DHT22;22327;51.208;6.418;2023-05-17T02:32:56;10.80;99.40
36292;DHT22;22327;51.208;6.418;2023-05-17T02:35:57;10.80;99.90
36292;DHT22;22327;51.208;6.418;2023-05-17T02:38:57;10.70;99.90
36292;DHT22;22327;51.208;6.418;2023-05-17T02:41:58;10.70;99.90
36292;DHT22;22327;51.208;6.418;2023-05-17T02:44:59;10.70;99.90
36292;DHT22;22327;51.208;6.418;2023-05-17T02:47:59;10.70;99.90
36292;DHT22;22327;51.208;6.418;2023-05-17T02:51:00;10.80;99.90
36292;DHT22;22327;51.208;6.418;2023-05-17T02:54:00;10.90;99.90
36292;DHT22;22327;51.208;6.418;2023-05-17T02:57:01;10.80;99.90
36292;DHT22;22327;51.208;6.418;2023-05-17T03:00:02;10.80;99.90
36292;DHT22;22327;51.208;6.418;2023-05-17T03:03:03;10.80;99.90
36292;DHT22;22327;51.208;6.418;2023-05-17T03:06:04;10.80;99.90
36292;DHT22;22327;51.208;6.418;2023-05-17T03:09:04;10.80;99.90
36292;DHT22;22327;51.208;6.418;2023-05-17T03:12:06;10.70;99.90
36292;DHT22;22327;51.208;6.418;2023-05-17T03:15:07;10.70;99.90
36292;DHT22;22327;51.208;6.418;2023-05-17T03:18:08;10.70;99.90
36292;DHT22;22327;51.208;6.418;2023-05-17T03:21:09;10.70;99.90
36292;DHT22;22327;51.208;6.418;2023-05-17T03:24:09;10.70;99.90
36292;DHT22;22327;51.208;6.418;2023-05-17T03:27:10;10.70;99.90
36292;DHT22;22327;51.208;6.418;2023-05-17T03:30:10;10.70;99.90
36292;DHT22;22327;51.208;6.418;2023-05-17T03:33:11;10.70;99.90
36292;DHT22;22327;51.208;6.418;2023-05-17T03:36:12;10.70;99.90
36292;DHT22;22327;51.208;6.418;2023-05-17T03:39:12;10.70;99.90
36292;DHT22;22327;51.208;6.418;2023-05-17T03:42:13;10.70;99.90
36292;DHT22;22327;51.208;6.418;2023-05-17T03:45:14;10.70;99.90
36292;DHT22;22327;51.208;6.418;2023-05-17T03:48:15;10.70;99.90
36292;DHT22;22327;51.208;6.418;2023-05-17T03:51:16;10.70;99.90
36292;DHT22;22327;51.208;6.418;2023-05-17T03:54:16;10.80;99.90
36292;DHT22;22327;51.208;6.418;2023-05-17T03:57:17;10.80;99.90
36292;DHT22;22327;51.208;6.418;2023-05-17T04:00:19;10.90;99.90
36292;DHT22;22327;51.208;6.418;2023-05-17T04:03:23;11.00;99.90
36292;DHT22;22327;51.208;6.418;2023-05-17T04:06:23;11.10;99.90
36292;DHT22;22327;51.208;6.418;2023-05-17T04:09:24;11.30;99.90
36292;DHT22;22327;51.208;6.418;2023-05-17T04:12:25;11.40;99.90
36292;DHT22;22327;51.208;6.418;2023-05-17T04:15:25;11.60;99.90
36292;DHT22;22327;51.208;6.418;2023-05-17T04:18:26;11.70;99.90
36292;DHT22;22327;51.208;6.418;2023-05-17T04:21:27;11.90;99.90
36292;DHT22;22327;51.208;6.418;2023-05-17T04:24:29;12.00;99.90
36292;DHT22;22327;51.208;6.418;2023-05-17T04:27:30;12.10;99.90
36292;DHT22;22327;51.208;6.418;2023-05-17T04:30:31;12.20;99.90
36292;DHT22;22327;51.208;6.418;2023-05-17T04:33:31;12.30;99.90
36292;DHT22;22327;51.208;6.418;2023-05-17T04:36:32;12.40;99.90
36292;DHT22;22327;51.208;6.418;2023-05-17T04:39:33;12.50;99.90
36292;DHT22;22327;51.208;6.418;2023-05-17T04:42:33;12.60;99.90
36292;DHT22;22327;51.208;6.418;2023-05-17T04:45:34;12.70;99.90
36292;DHT22;22327;51.208;6.418;2023-05-17T04:48:35;12.70;99.90
36292;DHT22;22327;51.208;6.418;2023-05-17T04:51:35;12.80;99.90
36292;DHT22;22327;51.208;6.418;2023-05-17T04:54:36;13.10;99.90
36292;DHT22;22327;51.208;6.418;2023-05-17T04:57:36;13.40;99.90
36292;DHT22;22327;51.208;6.418;2023-05-17T05:00:37;14.10;99.90
36292;DHT22;22327;51.208;6.418;2023-05-17T05:03:37;14.50;99.20
36292;DHT22;22327;51.208;6.418;2023-05-17T05:06:38;14.60;98.10
36292;DHT22;22327;51.208;6.418;2023-05-17T05:09:40;14.60;97.50
36292;DHT22;22327;51.208;6.418;2023-05-17T05:12:40;14.50;97.70
36292;DHT22;22327;51.208;6.418;2023-05-17T05:15:41;14.50;98.10
36292;DHT22;22327;51.208;6.418;2023-05-17T05:18:41;14.50;98.20
36292;DHT22;22327;51.208;6.418;2023-05-17T05:21:46;14.60;97.80
36292;DHT22;22327;51.208;6.418;2023-05-17T05:24:47;14.90;98.50
36292;DHT22;22327;51.208;6.418;2023-05-17T05:27:47;15.10;98.10
36292;DHT22;22327;51.208;6.418;2023-05-17T05:30:48;15.40;97.20
36292;DHT22;22327;51.208;6.418;2023-05-17T05:33:49;15.90;97.70
36292;DHT22;22327;51.208;6.418;2023-05-17T05:36:49;16.40;96.10
36292;DHT22;22327;51.208;6.418;2023-05-17T05:39:51;16.80;95.20
36292;DHT22;22327;51.208;6.418;2023-05-17T05:42:51;17.00;94.10
36292;DHT22;22327;51.208;6.418;2023-05-17T05:45:52;17.10;94.00
36292;DHT22;22327;51.208;6.418;2023-05-17T05:48:52;17.20;93.50
36292;DHT22;22327;51.208;6.418;2023-05-17T05:51:53;17.20;93.40
36292;DHT22;22327;51.208;6.418;2023-05-17T05:54:53;17.10;93.20
36292;DHT22;22327;51.208;6.418;2023-05-17T05:57:54;17.00;93.00
36292;DHT22;22327;51.208;6.418;2023-05-17T06:00:55;16.90;93.50
36292;DHT22;22327;51.208;6.418;2023-05-17T06:03:56;16.90;93.50
36292;DHT22;22327;51.208;6.418;2023-05-17T06:06:57;17.20;93.80
36292;DHT22;22327;51.208;6.418;2023-05-17T06:09:57;17.90;93.20
36292;DHT22;22327;51.208;6.418;2023-05-17T06:12:58;18.80;92.10
36292;DHT22;22327;51.208;6.418;2023-05-17T06:15:58;19.50;90.00
36292;DHT22;22327;51.208;6.418;2023-05-17T06:18:59;19.70;86.30
36292;DHT22;22327;51.208;6.418;2023-05-17T06:22:00;19.80;85.50
36292;DHT22;22327;51.208;6.418;2023-05-17T06:25:00;19.90;83.70
36292;DHT22;22327;51.208;6.418;2023-05-17T06:28:02;19.80;80.00
36292;DHT22;22327;51.208;6.418;2023-05-17T06:31:03;19.50;77.70
36292;DHT22;22327;51.208;6.418;2023-05-17T06:34:03;19.00;77.50
36292;DHT22;22327;51.208;6.418;2023-05-17T06:37:04;18.80;80.00
36292;DHT22;22327;51.208;6.418;2023-05-17T06:40:06;18.70;80.40
36292;DHT22;22327;51.208;6.418;2023-05-17T06:43:07;18.70;79.30
36292;DHT22;22327;51.208;6.418;2023-05-17T06:46:08;18.70;78.30
36292;DHT22;22327;51.208;6.418;2023-05-17T06:49:08;18.80;77.40
36292;DHT22;22327;51.208;6.418;2023-05-17T06:52:09;19.50;78.00
36292;DHT22;22327;51.208;6.418;2023-05-17T06:55:09;20.70;72.50
36292;DHT22;22327;51.208;6.418;2023-05-17T06:58:10;22.10;68.70
36292;DHT22;22327;51.208;6.418;2023-05-17T07:01:12;23.30;60.50
36292;DHT22;22327;51.208;6.418;2023-05-17T07:04:12;24.10;56.40
36292;DHT22;22327;51.208;6.418;2023-05-17T07:07:13;24.80;55.20
36292;DHT22;22327;51.208;6.418;2023-05-17T07:10:13;25.40;48.70
36292;DHT22;22327;51.208;6.418;2023-05-17T07:13:14;25.40;49.70
36292;DHT22;22327;51.208;6.418;2023-05-17T07:16:15;25.80;48.60
36292;DHT22;22327;51.208;6.418;2023-05-17T07:19:15;26.10;45.90
36292;DHT22;22327;51.208;6.418;2023-05-17T07:22:16;26.20;45.10
36292;DHT22;22327;51.208;6.418;2023-05-17T07:25:17;26.50;45.30
36292;DHT22;22327;51.208;6.418;2023-05-17T07:28:20;27.30;43.90
36292;DHT22;22327;51.208;6.418;2023-05-17T07:31:20;28.00;40.40
36292;DHT22;22327;51.208;6.418;2023-05-17T07:34:21;28.20;38.00
36292;DHT22;22327;51.208;6.418;2023-05-17T07:37:21;28.00;36.70
36292;DHT22;22327;51.208;6.418;2023-05-17T07:40:22;27.00;36.50
36292;DHT22;22327;51.208;6.418;2023-05-17T07:43:23;25.70;38.00
36292;DHT22;22327;51.208;6.418;2023-05-17T07:46:24;24.30;40.30
36292;DHT22;22327;51.208;6.418;2023-05-17T07:49:26;23.40;42.80
36292;DHT22;22327;51.208;6.418;2023-05-17T07:52:26;23.20;43.60
36292;DHT22;22327;51.208;6.418;2023-05-17T07:55:27;23.00;43.40
36292;DHT22;22327;51.208;6.418;2023-05-17T07:58:27;22.40;43.40
36292;DHT22;22327;51.208;6.418;2023-05-17T08:01:28;21.90;45.30
36292;DHT22;22327;51.208;6.418;2023-05-17T08:04:28;21.50;45.90
36292;DHT22;22327;51.208;6.418;2023-05-17T08:07:29;21.20;45.90
36292;DHT22;22327;51.208;6.418;2023-05-17T08:10:29;20.90;46.70
36292;DHT22;22327;51.208;6.418;2023-05-17T08:13:30;20.40;47.00
36292;DHT22;22327;51.208;6.418;2023-05-17T08:16:30;20.30;48.60
36292;DHT22;22327;51.208;6.418;2023-05-17T08:19:31;20.50;47.70
36292;DHT22;22327;51.208;6.418;2023-05-17T08:22:31;20.70;48.20
36292;DHT22;22327;51.208;6.418;2023-05-17T08:25:32;20.70;47.20
36292;DHT22;22327;51.208;6.418;2023-05-17T08:28:32;20.50;48.10
36292;DHT22;22327;51.208;6.418;2023-05-17T08:31:33;21.00;48.80
36292;DHT22;22327;51.208;6.418;2023-05-17T08:34:33;21.80;46.20
36292;DHT22;22327;51.208;6.418;2023-05-17T08:37:34;21.80;45.50
36292;DHT22;22327;51.208;6.418;2023-05-17T08:40:34;21.50;46.30
36292;DHT22;22327;51.208;6.418;2023-05-17T08:43:35;21.00;46.70
36292;DHT22;22327;51.208;6.418;2023-05-17T08:46:37;21.00;48.00
36292;DHT22;22327;51.208;6.418;2023-05-17T08:49:39;22.30;47.80
36292;DHT22;22327;51.208;6.418;2023-05-17T08:52:44;24.20;42.60
36292;DHT22;22327;51.208;6.418;2023-05-17T08:55:45;24.70;40.30
36292;DHT22;22327;51.208;6.418;2023-05-17T08:58:54;25.30;42.00
36292;DHT22;22327;51.208;6.418;2023-05-17T09:01:55;26.50;39.10
36292;DHT22;22327;51.208;6.418;2023-05-17T09:04:56;27.60;36.10
36292;DHT22;22327;51.208;6.418;2023-05-17T09:07:58;27.10;34.30
36292;DHT22;22327;51.208;6.418;2023-05-17T09:10:59;25.60;35.60
36292;DHT22;22327;51.208;6.418;2023-05-17T09:14:00;24.70;38.80
36292;DHT22;22327;51.208;6.418;2023-05-17T09:17:01;25.00;38.90
36292;DHT22;22327;51.208;6.418;2023-05-17T09:20:02;26.10;38.70
36292;DHT22;22327;51.208;6.418;2023-05-17T09:23:03;27.40;35.70
36292;DHT22;22327;51.208;6.418;2023-05-17T09:26:05;28.30;34.60
36292;DHT22;22327;51.208;6.418;2023-05-17T09:29:08;28.80;33.20
36292;DHT22;22327;51.208;6.418;2023-05-17T09:32:12;28.60;30.70
36292;DHT22;22327;51.208;6.418;2023-05-17T09:35:13;28.50;30.70
36292;DHT22;22327;51.208;6.418;2023-05-17T09:38:14;28.30;32.60
36292;DHT22;22327;51.208;6.418;2023-05-17T09:41:15;28.60;30.60
36292;DHT22;22327;51.208;6.418;2023-05-17T09:44:15;28.60;29.80
36292;DHT22;22327;51.208;6.418;2023-05-17T09:47:23;28.00;30.80
36292;DHT22;22327;51.208;6.418;2023-05-17T09:50:23;28.20;30.50
36292;DHT22;22327;51.208;6.418;2023-05-17T09:53:25;27.90;31.30
36292;DHT22;22327;51.208;6.418;2023-05-17T09:56:29;27.50;30.80
36292;DHT22;22327;51.208;6.418;2023-05-17T09:59:30;26.60;32.00
36292;DHT22;22327;51.208;6.418;2023-05-17T10:02:31;25.60;33.20
36292;DHT22;22327;51.208;6.418;2023-05-17T10:05:34;24.50;34.60
36292;DHT22;22327;51.208;6.418;2023-05-17T10:08:37;23.90;35.90
36292;DHT22;22327;51.208;6.418;2023-05-17T10:11:39;22.90;37.00
36292;DHT22;22327;51.208;6.418;2023-05-17T10:14:42;22.30;39.80
36292;DHT22;22327;51.208;6.418;2023-05-17T10:17:43;22.10;39.50
36292;DHT22;22327;51.208;6.418;2023-05-17T10:20:44;21.60;40.00
36292;DHT22;22327;51.208;6.418;2023-05-17T10:23:47;20.90;41.50
36292;DHT22;22327;51.208;6.418;2023-05-17T10:26:51;20.40;42.50
36292;DHT22;22327;51.208;6.418;2023-05-17T10:29:53;20.50;43.20
36292;DHT22;22327;51.208;6.418;2023-05-17T10:32:55;20.50;42.10
36292;DHT22;22327;51.208;6.418;2023-05-17T10:35:56;20.50;43.40
36292;DHT22;22327;51.208;6.418;2023-05-17T10:38:58;20.60;42.80
36292;DHT22;22327;51.208;6.418;2023-05-17T10:42:00;20.50;43.20
36292;DHT22;22327;51.208;6.418;2023-05-17T10:45:01;20.30;43.30
36292;DHT22;22327;51.208;6.418;2023-05-17T10:48:06;20.00;42.70
36292;DHT22;22327;51.208;6.418;2023-05-17T10:51:07;19.90;44.00
36292;DHT22;22327;51.208;6.418;2023-05-17T10:54:11;19.80;45.20
36292;DHT22;22327;51.208;6.418;2023-05-17T10:57:31;19.80;45.00
36292;DHT22;22327;51.208;6.418;2023-05-17T11:00:39;19.60;45.60
36292;DHT22;22327;51.208;6.418;2023-05-17T11:03:41;19.50;47.00
36292;DHT22;22327;51.208;6.418;2023-05-17T11:06:41;19.40;46.60
36292;DHT22;22327;51.208;6.418;2023-05-17T11:09:47;19.50;45.10
36292;DHT22;22327;51.208;6.418;2023-05-17T11:12:49;19.50;45.30
36292;DHT22;22327;51.208;6.418;2023-05-17T11:16:05;19.50;45.90
36292;DHT22;22327;51.208;6.418;2023-05-17T11:19:10;19.70;47.30
36292;DHT22;22327;51.208;6.418;2023-05-17T11:22:15;19.50;47.50
36292;DHT22;22327;51.208;6.418;2023-05-17T11:25:16;19.30;46.60
36292;DHT22;22327;51.208;6.418;2023-05-17T11:28:19;19.20;45.00
36292;DHT22;22327;51.208;6.418;2023-05-17T11:31:29;19.10;45.30
36292;DHT22;22327;51.208;6.418;2023-05-17T11:34:32;19.10;44.90
36292;DHT22;22327;51.208;6.418;2023-05-17T11:37:33;19.10;46.50
36292;DHT22;22327;51.208;6.418;2023-05-17T11:40:33;19.10;45.80
36292;DHT22;22327;51.208;6.418;2023-05-17T11:43:34;19.10;47.10
36292;DHT22;22327;51.208;6.418;2023-05-17T11:46:36;19.10;46.30
36292;DHT22;22327;51.208;6.418;2023-05-17T11:49:38;19.10;45.10
36292;DHT22;22327;51.208;6.418;2023-05-17T11:52:39;19.00;45.80
36292;DHT22;22327;51.208;6.418;2023-05-17T11:55:47;19.00;46.30
36292;DHT22;22327;51.208;6.418;2023-05-17T11:58:52;18.90;45.70
36292;DHT22;22327;51.208;6.418;2023-05-17T12:01:53;18.90;47.00
36292;DHT22;22327;51.208;6.418;2023-05-17T12:04:55;18.90;47.90
36292;DHT22;22327;51.208;6.418;2023-05-17T12:07:56;19.10;46.90
36292;DHT22;22327;51.208;6.418;2023-05-17T12:10:57;19.00;43.50
36292;DHT22;22327;51.208;6.418;2023-05-17T12:13:58;18.90;44.60
36292;DHT22;22327;51.208;6.418;2023-05-17T12:17:02;18.80;45.70
36292;DHT22;22327;51.208;6.418;2023-05-17T12:20:08;18.70;45.60
36292;DHT22;22327;51.208;6.418;2023-05-17T12:23:09;18.70;47.00
36292;DHT22;22327;51.208;6.418;2023-05-17T12:29:12;18.80;47.60
36292;DHT22;22327;51.208;6.418;2023-05-17T12:32:14;18.80;46.70
36292;DHT22;22327;51.208;6.418;2023-05-17T12:35:14;18.80;47.00
36292;DHT22;22327;51.208;6.418;2023-05-17T12:38:15;18.80;46.60
36292;DHT22;22327;51.208;6.418;2023-05-17T12:41:16;18.90;47.80
36292;DHT22;22327;51.208;6.418;2023-05-17T12:44:19;19.20;47.50
36292;DHT22;22327;51.208;6.418;2023-05-17T12:47:19;19.30;46.40
36292;DHT22;22327;51.208;6.418;2023-05-17T12:50:30;19.20;46.30
36292;DHT22;22327;51.208;6.418;2023-05-17T12:53:40;19.20;46.80
36292;DHT22;22327;51.208;6.418;2023-05-17T12:56:41;19.00;46.50
36292;DHT22;22327;51.208;6.418;2023-05-17T12:59:51;18.80;47.60
36292;DHT22;22327;51.208;6.418;2023-05-17T13:02:52;18.90;48.70
36292;DHT22;22327;51.208;6.418;2023-05-17T13:06:04;19.00;47.60
36292;DHT22;22327;51.208;6.418;2023-05-17T13:09:06;18.90;46.60
36292;DHT22;22327;51.208;6.418;2023-05-17T13:12:07;18.90;47.50
36292;DHT22;22327;51.208;6.418;2023-05-17T13:15:09;18.90;48.60
36292;DHT22;22327;51.208;6.418;2023-05-17T13:18:13;19.30;49.10
36292;DHT22;22327;51.208;6.418;2023-05-17T13:21:16;19.50;47.00
36292;DHT22;22327;51.208;6.418;2023-05-17T13:24:16;19.40;47.70
36292;DHT22;22327;51.208;6.418;2023-05-17T13:27:17;19.40;46.50
36292;DHT22;22327;51.208;6.418;2023-05-17T13:30:18;19.50;46.90
36292;DHT22;22327;51.208;6.418;2023-05-17T13:33:18;19.50;46.40
36292;DHT22;22327;51.208;6.418;2023-05-17T13:36:19;19.40;46.20
36292;DHT22;22327;51.208;6.418;2023-05-17T13:39:19;19.40;46.30
36292;DHT22;22327;51.208;6.418;2023-05-17T13:42:21;19.10;45.70
36292;DHT22;22327;51.208;6.418;2023-05-17T13:45:22;18.80;45.90
36292;DHT22;22327;51.208;6.418;2023-05-17T13:48:22;18.80;47.00
36292;DHT22;22327;51.208;6.418;2023-05-17T13:51:23;18.80;46.90
36292;DHT22;22327;51.208;6.418;2023-05-17T13:54:24;18.80;47.40
36292;DHT22;22327;51.208;6.418;2023-05-17T13:57:25;18.80;46.00
36292;DHT22;22327;51.208;6.418;2023-05-17T14:00:26;18.90;45.20
36292;DHT22;22327;51.208;6.418;2023-05-17T14:03:26;18.90;45.70
36292;DHT22;22327;51.208;6.418;2023-05-17T14:06:27;19.00;47.10
36292;DHT22;22327;51.208;6.418;2023-05-17T14:09:27;19.00;46.00
36292;DHT22;22327;51.208;6.418;2023-05-17T14:12:32;19.00;46.50
36292;DHT22;22327;51.208;6.418;2023-05-17T14:15:32;18.90;45.70
36292;DHT22;22327;51.208;6.418;2023-05-17T14:18:37;18.90;45.70
36292;DHT22;22327;51.208;6.418;2023-05-17T14:21:37;18.70;46.90
36292;DHT22;22327;51.208;6.418;2023-05-17T14:24:38;18.70;46.60
36292;DHT22;22327;51.208;6.418;2023-05-17T14:27:38;18.70;46.40
36292;DHT22;22327;51.208;6.418;2023-05-17T14:30:39;18.70;47.10
36292;DHT22;22327;51.208;6.418;2023-05-17T14:33:40;18.60;46.00
36292;DHT22;22327;51.208;6.418;2023-05-17T14:36:40;18.60;45.80
36292;DHT22;22327;51.208;6.418;2023-05-17T14:39:41;18.60;45.80
36292;DHT22;22327;51.208;6.418;2023-05-17T14:42:41;18.60;45.00
36292;DHT22;22327;51.208;6.418;2023-05-17T14:45:42;18.50;44.90
36292;DHT22;22327;51.208;6.418;2023-05-17T14:48:43;18.30;45.40
36292;DHT22;22327;51.208;6.418;2023-05-17T14:51:43;18.20;46.00
36292;DHT22;22327;51.208;6.418;2023-05-17T14:54:44;18.10;45.80
36292;DHT22;22327;51.208;6.418;2023-05-17T14:57:44;18.00;46.20
36292;DHT22;22327;51.208;6.418;2023-05-17T15:00:45;18.00;46.40
36292;DHT22;22327;51.208;6.418;2023-05-17T15:03:47;18.00;46.40
36292;DHT22;22327;51.208;6.418;2023-05-17T15:06:47;18.20;45.80
36292;DHT22;22327;51.208;6.418;2023-05-17T15:09:48;18.30;46.60
36292;DHT22;22327;51.208;6.418;2023-05-17T15:12:49;18.40;46.30
36292;DHT22;22327;51.208;6.418;2023-05-17T15:15:49;18.40;46.50
36292;DHT22;22327;51.208;6.418;2023-05-17T15:18:51;18.50;48.00
36292;DHT22;22327;51.208;6.418;2023-05-17T15:21:52;18.60;47.30
36292;DHT22;22327;51.208;6.418;2023-05-17T15:24:52;18.40;46.80
36292;DHT22;22327;51.208;6.418;2023-05-17T15:27:53;18.30;45.80
36292;DHT22;22327;51.208;6.418;2023-05-17T15:31:03;18.20;45.60
36292;DHT22;22327;51.208;6.418;2023-05-17T15:34:09;18.20;47.00
36292;DHT22;22327;51.208;6.418;2023-05-17T15:37:10;18.30;46.10
36292;DHT22;22327;51.208;6.418;2023-05-17T15:40:11;18.30;46.30
36292;DHT22;22327;51.208;6.418;2023-05-17T15:43:11;18.50;46.30
36292;DHT22;22327;51.208;6.418;2023-05-17T15:46:12;18.60;46.50
36292;DHT22;22327;51.208;6.418;2023-05-17T15:49:12;18.70;46.20
36292;DHT22;22327;51.208;6.418;2023-05-17T15:52:13;18.60;46.40
36292;DHT22;22327;51.208;6.418;2023-05-17T15:55:14;18.50;46.10
36292;DHT22;22327;51.208;6.418;2023-05-17T15:58:16;18.50;46.50
36292;DHT22;22327;51.208;6.418;2023-05-17T16:01:16;18.30;46.40
36292;DHT22;22327;51.208;6.418;2023-05-17T16:04:17;18.10;47.20
36292;DHT22;22327;51.208;6.418;2023-05-17T16:07:17;18.10;47.40
36292;DHT22;22327;51.208;6.418;2023-05-17T16:10:18;18.00;47.30
36292;DHT22;22327;51.208;6.418;2023-05-17T16:13:19;17.90;47.80
36292;DHT22;22327;51.208;6.418;2023-05-17T16:16:20;17.90;48.00
36292;DHT22;22327;51.208;6.418;2023-05-17T16:19:20;17.90;47.60
36292;DHT22;22327;51.208;6.418;2023-05-17T16:22:20;17.80;47.70
36292;DHT22;22327;51.208;6.418;2023-05-17T16:25:22;17.70;47.70
36292;DHT22;22327;51.208;6.418;2023-05-17T16:28:23;17.70;47.30
36292;DHT22;22327;51.208;6.418;2023-05-17T16:31:24;17.80;47.40
36292;DHT22;22327;51.208;6.418;2023-05-17T16:34:24;17.80;47.50
36292;DHT22;22327;51.208;6.418;2023-05-17T16:37:27;17.90;48.20
36292;DHT22;22327;51.208;6.418;2023-05-17T16:40:28;17.90;47.90
36292;DHT22;22327;51.208;6.418;2023-05-17T16:43:29;18.00;47.70
36292;DHT22;22327;51.208;6.418;2023-05-17T16:46:30;18.00;47.50
36292;DHT22;22327;51.208;6.418;2023-05-17T16:49:30;18.00;47.30
36292;DHT22;22327;51.208;6.418;2023-05-17T16:52:31;17.90;46.40
36292;DHT22;22327;51.208;6.418;2023-05-17T16:55:32;17.90;46.50
36292;DHT22;22327;51.208;6.418;2023-05-17T16:58:32;18.00;47.30
36292;DHT22;22327;51.208;6.418;2023-05-17T17:01:33;18.00;46.80
36292;DHT22;22327;51.208;6.418;2023-05-17T17:04:34;18.10;47.40
36292;DHT22;22327;51.208;6.418;2023-05-17T17:07:35;18.10;47.60
36292;DHT22;22327;51.208;6.418;2023-05-17T17:10:35;18.00;46.80
36292;DHT22;22327;51.208;6.418;2023-05-17T17:13:36;18.00;46.30
36292;DHT22;22327;51.208;6.418;2023-05-17T17:16:36;17.80;46.50
36292;DHT22;22327;51.208;6.418;2023-05-17T17:19:37;17.80;46.50
36292;DHT22;22327;51.208;6.418;2023-05-17T17:22:38;17.80;46.90
36292;DHT22;22327;51.208;6.418;2023-05-17T17:25:39;17.80;47.20
36292;DHT22;22327;51.208;6.418;2023-05-17T17:28:40;17.80;46.90
36292;DHT22;22327;51.208;6.418;2023-05-17T17:31:40;17.70;47.00
36292;DHT22;22327;51.208;6.418;2023-05-17T17:34:41;17.70;47.80
36292;DHT22;22327;51.208;6.418;2023-05-17T17:37:42;17.70;48.00
36292;DHT22;22327;51.208;6.418;2023-05-17T17:40:42;17.80;48.00
36292;DHT22;22327;51.208;6.418;2023-05-17T17:43:43;17.70;47.90
36292;DHT22;22327;51.208;6.418;2023-05-17T17:46:46;17.70;47.90
36292;DHT22;22327;51.208;6.418;2023-05-17T17:49:46;17.60;48.20
36292;DHT22;22327;51.208;6.418;2023-05-17T17:52:48;17.60;48.30
36292;DHT22;22327;51.208;6.418;2023-05-17T17:55:48;17.50;48.00
36292;DHT22;22327;51.208;6.418;2023-05-17T17:58:49;17.50;48.50
36292;DHT22;22327;51.208;6.418;2023-05-17T18:01:49;17.40;48.90
36292;DHT22;22327;51.208;6.418;2023-05-17T18:04:50;17.40;49.20
36292;DHT22;22327;51.208;6.418;2023-05-17T18:07:51;17.40;49.30
36292;DHT22;22327;51.208;6.418;2023-05-17T18:10:52;17.40;49.70
36292;DHT22;22327;51.208;6.418;2023-05-17T18:13:53;17.30;49.80
36292;DHT22;22327;51.208;6.418;2023-05-17T18:16:54;17.20;50.00
36292;DHT22;22327;51.208;6.418;2023-05-17T18:19:54;17.20;50.40
36292;DHT22;22327;51.208;6.418;2023-05-17T18:22:55;17.10;50.70
36292;DHT22;22327;51.208;6.418;2023-05-17T18:25:55;17.10;50.70
36292;DHT22;22327;51.208;6.418;2023-05-17T18:28:56;17.00;50.40
36292;DHT22;22327;51.208;6.418;2023-05-17T18:31:56;16.80;50.30
36292;DHT22;22327;51.208;6.418;2023-05-17T18:34:58;16.90;50.70
36292;DHT22;22327;51.208;6.418;2023-05-17T18:37:59;16.80;50.60
36292;DHT22;22327;51.208;6.418;2023-05-17T18:41:00;16.70;51.00
36292;DHT22;22327;51.208;6.418;2023-05-17T18:44:00;16.60;51.20
36292;DHT22;22327;51.208;6.418;2023-05-17T18:47:02;16.60;51.60
36292;DHT22;22327;51.208;6.418;2023-05-17T18:50:02;16.50;51.80
36292;DHT22;22327;51.208;6.418;2023-05-17T18:53:03;16.40;52.20
36292;DHT22;22327;51.208;6.418;2023-05-17T18:56:04;16.40;52.40
36292;DHT22;22327;51.208;6.418;2023-05-17T18:59:04;16.40;52.80
36292;DHT22;22327;51.208;6.418;2023-05-17T19:02:05;16.30;53.10
36292;DHT22;22327;51.208;6.418;2023-05-17T19:05:06;16.20;53.40
36292;DHT22;22327;51.208;6.418;2023-05-17T19:08:07;16.20;53.70
36292;DHT22;22327;51.208;6.418;2023-05-17T19:11:07;16.10;53.80
36292;DHT22;22327;51.208;6.418;2023-05-17T19:14:08;16.00;54.10
36292;DHT22;22327;51.208;6.418;2023-05-17T19:17:10;15.90;54.30
36292;DHT22;22327;51.208;6.418;2023-05-17T19:20:11;15.80;54.80